Time;durP1;ratioP1;P1;durP2;ratioP2;P2;SDS_P1;SDS_P2;PMS_P1;PMS_P2;Temp;Humidity;BMP_temperature;BMP_pressure;BME280_temperature;BME280_humidity;BME280_pressure;Samples;Min_cycle;Max_cycle;Signal;HPM_P1;HPM_P2
2022/09/08 00:00:13;;;;;;;;;;;;;;;;;;5175478;27;19954;-47
2022/09/08 00:02:40;;;;;;;;;;;;;;;;;;5174691;27;19922;-41
2022/09/08 00:05:08;;;;;;;;;;;;;;;;;;5175112;27;19926;-45
2022/09/08 00:07:38;;;;;;;;;;;;;;;;;;5174830;27;19972;-43
2022/09/08 00:10:05;;;;;;;;;;;;;;;;;;5174755;27;19982;-44
2022/09/08 00:12:34;;;;;;;;;;;;;;;;;;5175201;27;20216;-45
2022/09/08 00:15:02;;;;;;;;;;;;;;;;;;5175068;27;19973;-41
2022/09/08 00:17:29;;;;;;;;;;;;;;;;;;5175010;27;19922;-44
2022/09/08 00:19:56;;;;;;;;;;;;;;;;;;5174921;27;20289;-50
2022/09/08 00:22:24;;;;;;;;;;;;;;;;;;5174545;27;20397;-47
2022/09/08 00:24:51;;;;;;;;;;;;;;;;;;5174966;27;19937;-46
2022/09/08 00:27:21;;;;;;;;;;;;;;;;;;5156143;27;20458;-41
2022/09/08 00:29:48;;;;;;;;;;;;;;;;;;5175056;27;19970;-50
2022/09/08 00:32:15;;;;;;;;;;;;;;;;;;5174720;27;19929;-42
2022/09/08 00:34:42;;;;;;;;;;;;;;;;;;5174621;27;19927;-41
2022/09/08 00:37:09;;;;;;;;;;;;;;;;;;5175004;27;19930;-47
2022/09/08 00:39:37;;;;;;;;;;;;;;;;;;5174606;27;19923;-48
2022/09/08 00:42:06;;;;;;;;;;;;;;;;;;5174919;27;20383;-48
2022/09/08 00:44:38;;;;;;;;;;;;;;;;;;5174449;27;19930;-44
2022/09/08 00:47:11;;;;;;;;;;;;;;;;;;5174557;27;19937;-48
2022/09/08 00:49:40;;;;;;;;;;;;;;;;;;5175029;27;19984;-52
2022/09/08 00:52:08;;;;;;;;;;;;;;;;;;5174952;27;19930;-45
2022/09/08 00:54:36;;;;;;;;;;;;;;;;;;5174324;27;19929;-46
2022/09/08 00:57:03;;;;;;;;;;;;;;;;;;5174201;27;19935;-49
2022/09/08 00:59:33;;;;;;;;;;;;;;;;;;5174542;27;19970;-45
2022/09/08 01:02:01;;;;;;;;;;;;;;;;;;5174574;27;19922;-46
2022/09/08 01:04:28;;;;;;;;;;;;;;;;;;5174310;27;19923;-48
2022/09/08 01:13:00;;;;;;;;;;;;;;;;;;5133119;27;19923;-44
2022/09/08 01:15:28;;;;;;;;;;;;;;;;;;5136488;27;20014;-48
2022/09/08 01:17:57;;;;;;;;;;;;;;;;;;5136895;27;20293;-46
2022/09/08 01:20:45;;;;;;;;;;;;;;;;;;5136609;27;19923;-49
2022/09/08 01:23:19;;;;;;;;;;;;;;;;;;5132699;27;19947;-41
2022/09/08 01:26:08;;;;;;;;;;;;;;;;;;5122294;27;19923;-49
2022/09/08 01:28:46;;;;;;;;;;;;;;;;;;5115716;28;20527;-47
2022/09/08 01:31:13;;;;;;;;;;;;;;;;;;5116027;28;19935;-42
2022/09/08 01:33:41;;;;;;;;;;;;;;;;;;5116222;28;19963;-51
2022/09/08 01:36:12;;;;;;;;;;;;;;;;;;5115507;27;19931;-50
2022/09/08 01:38:40;;;;;;;;;;;;;;;;;;5115915;28;19969;-54
2022/09/08 01:41:07;;;;;;;;;;;;;;;;;;5115976;28;20042;-50
2022/09/08 01:43:35;;;;;;;;;;;;;;;;;;5115930;27;20019;-47
2022/09/08 01:46:02;;;;;;;;;;;;;;;;;;5136375;27;19938;-44
2022/09/08 01:48:32;;;;;;;;;;;;;;;;;;5136022;27;19923;-44
2022/09/08 01:51:01;;;;;;;;;;;;;;;;;;5136426;27;19923;-50
2022/09/08 01:53:30;;;;;;;;;;;;;;;;;;5135922;27;20386;-54
2022/09/08 01:55:57;;;;;;;;;;;;;;;;;;5136035;27;19930;-52
2022/09/08 01:58:26;;;;;;;;;;;;;;;;;;5135982;27;19929;-52
2022/09/08 02:00:56;;;;;;;;;;;;;;;;;;5135830;27;19931;-46
2022/09/08 02:03:23;;;;;;;;;;;;;;;;;;5135845;27;20018;-45
2022/09/08 02:05:50;;;;;;;;;;;;;;;;;;5135562;27;20017;-50
2022/09/08 02:08:17;;;;;;;;;;;;;;;;;;5156875;27;20340;-50
2022/09/08 02:10:52;;;;;;;;;;;;;;;;;;5177286;27;19923;-43
2022/09/08 02:13:20;;;;;;;;;;;;;;;;;;5177234;27;19930;-47
2022/09/08 02:15:47;;;;;;;;;;;;;;;;;;5177124;27;19930;-42
2022/09/08 02:18:15;;;;;;;;;;;;;;;;;;5177178;27;20381;-41
2022/09/08 02:20:42;;;;;;;;;;;;;;;;;;5177463;27;19945;-48
2022/09/08 02:23:09;;;;;;;;;;;;;;;;;;5177395;27;19923;-54
2022/09/08 02:25:36;;;;;;;;;;;;;;;;;;5176420;27;19930;-51
2022/09/08 02:28:04;;;;;;;;;;;;;;;;;;5177147;27;20002;-51
2022/09/08 02:30:31;;;;;;;;;;;;;;;;;;5176913;27;19927;-49
2022/09/08 02:32:58;;;;;;;;;;;;;;;;;;5176855;27;19981;-50
2022/09/08 02:35:25;;;;;;;;;;;;;;;;;;5176731;27;19923;-42
2022/09/08 02:37:52;;;;;;;;;;;;;;;;;;5176956;27;19974;-45
2022/09/08 02:40:19;;;;;;;;;;;;;;;;;;5154548;27;19923;-43
2022/09/08 02:42:47;;;;;;;;;;;;;;;;;;5155687;27;20322;-47
2022/09/08 02:45:15;;;;;;;;;;;;;;;;;;5155532;27;20382;-42
2022/09/08 02:47:42;;;;;;;;;;;;;;;;;;5137427;27;20359;-43
2022/09/08 02:50:10;;;;;;;;;;;;;;;;;;5155928;27;19930;-41
2022/09/08 02:52:37;;;;;;;;;;;;;;;;;;5155510;27;20446;-43
2022/09/08 02:55:05;;;;;;;;;;;;;;;;;;5154819;27;19931;-48
2022/09/08 02:57:32;;;;;;;;;;;;;;;;;;5154441;27;19948;-52
2022/09/08 02:59:59;;;;;;;;;;;;;;;;;;5155271;27;19957;-45
2022/09/08 03:02:27;;;;;;;;;;;;;;;;;;5136837;27;19979;-44
2022/09/08 03:04:54;;;;;;;;;;;;;;;;;;5154511;27;20300;-49
2022/09/08 03:07:21;;;;;;;;;;;;;;;;;;5155382;27;20331;-48
2022/09/08 03:09:51;;;;;;;;;;;;;;;;;;5155413;27;19962;-54
2022/09/08 03:12:18;;;;;;;;;;;;;;;;;;5155028;27;19923;-52
2022/09/08 03:14:45;;;;;;;;;;;;;;;;;;5155143;27;20296;-50
2022/09/08 03:17:12;;;;;;;;;;;;;;;;;;5155535;27;20385;-50
2022/09/08 03:19:41;;;;;;;;;;;;;;;;;;5162285;27;20386;-51
2022/09/08 03:22:09;;;;;;;;;;;;;;;;;;5175797;27;19923;-50
2022/09/08 03:24:36;;;;;;;;;;;;;;;;;;5175911;27;20389;-51
2022/09/08 03:27:04;;;;;;;;;;;;;;;;;;5158063;27;20394;-52
2022/09/08 03:29:31;;;;;;;;;;;;;;;;;;5154949;27;19995;-47
2022/09/08 03:31:58;;;;;;;;;;;;;;;;;;5154814;27;20382;-50
2022/09/08 03:34:26;;;;;;;;;;;;;;;;;;5154772;27;20422;-41
2022/09/08 03:36:53;;;;;;;;;;;;;;;;;;5153878;27;19991;-41
2022/09/08 03:39:20;;;;;;;;;;;;;;;;;;5154705;27;19988;-42
2022/09/08 03:41:48;;;;;;;;;;;;;;;;;;5154703;27;20303;-42
2022/09/08 03:44:15;;;;;;;;;;;;;;;;;;5136495;27;20022;-42
2022/09/08 03:46:42;;;;;;;;;;;;;;;;;;5154887;27;20338;-51
2022/09/08 03:49:11;;;;;;;;;;;;;;;;;;5154822;27;20009;-41
2022/09/08 03:51:38;;;;;;;;;;;;;;;;;;5154737;27;20434;-48
2022/09/08 03:56:51;;;;;;;;;;;;;;;;;;5154414;27;20025;-52
2022/09/08 03:59:19;;;;;;;;;;;;;;;;;;5154289;27;19923;-48
2022/09/08 04:01:46;;;;;;;;;;;;;;;;;;5154302;27;19929;-48
2022/09/08 04:04:14;;;;;;;;;;;;;;;;;;5136224;27;19927;-45
2022/09/08 04:06:42;;;;;;;;;;;;;;;;;;5154584;27;19944;-49
2022/09/08 04:09:10;;;;;;;;;;;;;;;;;;5154186;27;19930;-47
2022/09/08 04:11:37;;;;;;;;;;;;;;;;;;5154312;27;19923;-49
2022/09/08 04:14:05;;;;;;;;;;;;;;;;;;5154205;27;19943;-41
2022/09/08 04:16:32;;;;;;;;;;;;;;;;;;5154081;27;19933;-42
2022/09/08 04:18:59;;;;;;;;;;;;;;;;;;5155391;27;20282;-45
2022/09/08 04:21:27;;;;;;;;;;;;;;;;;;5174856;27;20002;-45
2022/09/08 04:23:54;;;;;;;;;;;;;;;;;;5174850;27;19983;-48
2022/09/08 04:26:21;;;;;;;;;;;;;;;;;;5175101;27;20359;-47
2022/09/08 04:28:48;;;;;;;;;;;;;;;;;;5174766;27;20226;-42
2022/09/08 04:31:16;;;;;;;;;;;;;;;;;;5174780;27;19922;-42
2022/09/08 04:33:43;;;;;;;;;;;;;;;;;;5174618;27;19923;-48
2022/09/08 04:36:12;;;;;;;;;;;;;;;;;;5174943;27;20390;-49
2022/09/08 04:38:53;;;;;;;;;;;;;;;;;;5174773;27;20335;-45
2022/09/08 04:41:20;;;;;;;;;;;;;;;;;;5174756;27;19922;-42
2022/09/08 04:43:51;;;;;;;;;;;;;;;;;;5174463;27;19923;-43
2022/09/08 04:46:18;;;;;;;;;;;;;;;;;;5174193;27;19926;-41
2022/09/08 04:48:46;;;;;;;;;;;;;;;;;;5175699;27;19930;-42
2022/09/08 04:51:18;;;;;;;;;;;;;;;;;;5179417;27;19962;-41
2022/09/08 04:53:45;;;;;;;;;;;;;;;;;;5174419;27;19935;-41
2022/09/08 04:56:13;;;;;;;;;;;;;;;;;;5158198;27;20271;-45
2022/09/08 04:58:41;;;;;;;;;;;;;;;;;;5158091;27;19975;-49
2022/09/08 05:01:10;;;;;;;;;;;;;;;;;;5158035;27;20390;-48
2022/09/08 05:03:38;;;;;;;;;;;;;;;;;;5158119;27;19949;-48
2022/09/08 05:06:06;;;;;;;;;;;;;;;;;;5157659;27;19938;-42
2022/09/08 05:08:33;;;;;;;;;;;;;;;;;;5157593;27;19927;-41
2022/09/08 05:11:01;;;;;;;;;;;;;;;;;;5157777;27;19976;-47
2022/09/08 05:13:29;;;;;;;;;;;;;;;;;;5157712;27;19923;-47
2022/09/08 05:16:03;;;;;;;;;;;;;;;;;;5157690;27;19927;-45
2022/09/08 05:18:31;;;;;;;;;;;;;;;;;;5157632;27;19923;-50
2022/09/08 05:20:59;;;;;;;;;;;;;;;;;;5176144;27;20247;-52
2022/09/08 05:23:26;;;;;;;;;;;;;;;;;;5178487;27;19966;-49
2022/09/08 05:25:56;;;;;;;;;;;;;;;;;;5153248;27;20131;-42
2022/09/08 05:28:25;;;;;;;;;;;;;;;;;;5157203;27;20390;-38
2022/09/08 05:30:53;;;;;;;;;;;;;;;;;;5157555;27;19923;-38
2022/09/08 05:33:22;;;;;;;;;;;;;;;;;;5157307;27;19968;-43
2022/09/08 05:35:50;;;;;;;;;;;;;;;;;;5157175;27;19927;-45
2022/09/08 05:38:19;;;;;;;;;;;;;;;;;;5157112;27;19976;-45
2022/09/08 05:40:48;;;;;;;;;;;;;;;;;;5157172;27;19931;-43
2022/09/08 05:43:16;;;;;;;;;;;;;;;;;;5156592;27;19929;-44
2022/09/08 05:45:44;;;;;;;;;;;;;;;;;;5156732;27;20010;-41
2022/09/08 05:48:12;;;;;;;;;;;;;;;;;;5156834;27;20033;-43
2022/09/08 05:50:44;;;;;;;;;;;;;;;;;;5156746;27;19923;-38
2022/09/08 05:53:12;;;;;;;;;;;;;;;;;;5156742;27;19927;-44
2022/09/08 05:55:41;;;;;;;;;;;;;;;;;;5156891;27;19923;-46
2022/09/08 05:58:10;;;;;;;;;;;;;;;;;;5156445;27;19923;-46
2022/09/08 06:01:15;;;;;;;;;;;;;;;;;;5155299;27;19968;-49
2022/09/08 06:03:42;;;;;;;;;;;;;;;;;;5152097;27;20394;-45
2022/09/08 06:06:10;;;;;;;;;;;;;;;;;;5156186;27;20018;-47
2022/09/08 06:08:38;;;;;;;;;;;;;;;;;;5161128;27;19958;-48
2022/09/08 06:11:06;;;;;;;;;;;;;;;;;;5156402;27;19953;-48
2022/09/08 06:13:34;;;;;;;;;;;;;;;;;;5156262;27;19923;-49
2022/09/08 06:16:02;;;;;;;;;;;;;;;;;;5155883;27;19946;-51
2022/09/08 06:18:31;;;;;;;;;;;;;;;;;;5155922;27;20412;-43
2022/09/08 06:21:02;;;;;;;;;;;;;;;;;;5174253;27;19927;-47
2022/09/08 06:23:30;;;;;;;;;;;;;;;;;;5176942;27;19923;-49
2022/09/08 06:25:57;;;;;;;;;;;;;;;;;;5170912;27;20298;-49
2022/09/08 06:28:38;;;;;;;;;;;;;;;;;;5155786;27;19923;-49
2022/09/08 06:31:07;;;;;;;;;;;;;;;;;;5156114;27;20022;-46
2022/09/08 06:33:38;;;;;;;;;;;;;;;;;;5155993;27;20445;-51
2022/09/08 06:36:12;;;;;;;;;;;;;;;;;;5155775;27;20420;-45
2022/09/08 06:39:09;;;;;;;;;;;;;;;;;;5155927;27;19923;-43
2022/09/08 06:41:43;;;;;;;;;;;;;;;;;;5130846;27;20002;-42
2022/09/08 06:44:16;;;;;;;;;;;;;;;;;;5155733;27;19930;-42
2022/09/08 06:46:44;;;;;;;;;;;;;;;;;;5155690;27;19968;-42
2022/09/08 06:49:13;;;;;;;;;;;;;;;;;;5155715;27;20259;-42
2022/09/08 06:51:48;;;;;;;;;;;;;;;;;;5155708;27;19923;-50
2022/09/08 06:54:22;;;;;;;;;;;;;;;;;;5155729;27;19927;-41
2022/09/08 06:57:05;;;;;;;;;;;;;;;;;;5155273;27;20370;-42
2022/09/08 07:00:08;;;;;;;;;;;;;;;;;;5155409;27;19962;-42
2022/09/08 07:02:44;;;;;;;;;;;;;;;;;;5155154;27;20610;-49
2022/09/08 07:05:15;;;;;;;;;;;;;;;;;;5155519;27;19923;-44
2022/09/08 07:07:48;;;;;;;;;;;;;;;;;;5155219;27;19949;-45
2022/09/08 07:10:23;;;;;;;;;;;;;;;;;;5154971;27;19983;-42
2022/09/08 07:13:10;;;;;;;;;;;;;;;;;;5155129;27;19923;-43
2022/09/08 07:15:56;;;;;;;;;;;;;;;;;;5153875;27;20286;-44
2022/09/08 07:18:37;;;;;;;;;;;;;;;;;;5154986;27;20327;-46
2022/09/08 07:21:21;;;;;;;;;;;;;;;;;;5174023;27;19929;-46
2022/09/08 07:23:49;;;;;;;;;;;;;;;;;;5175957;27;20013;-44
2022/09/08 07:26:22;;;;;;;;;;;;;;;;;;5175835;27;19923;-42
2022/09/08 07:28:51;;;;;;;;;;;;;;;;;;5157320;27;19927;-50
2022/09/08 07:31:20;;;;;;;;;;;;;;;;;;5175712;27;20010;-48
2022/09/08 07:33:54;;;;;;;;;;;;;;;;;;5175864;27;19977;-47
2022/09/08 07:36:34;;;;;;;;;;;;;;;;;;5175638;27;20307;-45
2022/09/08 07:39:03;;;;;;;;;;;;;;;;;;5175551;27;19962;-46
2022/09/08 07:41:37;;;;;;;;;;;;;;;;;;5175292;27;20397;-43
2022/09/08 07:44:14;;;;;;;;;;;;;;;;;;5175567;27;19991;-44
2022/09/08 07:47:06;;;;;;;;;;;;;;;;;;5175753;27;19923;-45
2022/09/08 07:49:52;;;;;;;;;;;;;;;;;;5175299;27;19970;-48
2022/09/08 07:52:27;;;;;;;;;;;;;;;;;;5175392;27;19922;-46
2022/09/08 07:55:12;;;;;;;;;;;;;;;;;;5175336;27;20393;-47
2022/09/08 07:57:55;;;;;;;;;;;;;;;;;;5175131;27;19922;-46
2022/09/08 08:00:22;;;;;;;;;;;;;;;;;;5175002;27;19948;-47
2022/09/08 08:02:49;;;;;;;;;;;;;;;;;;5175130;27;19923;-41
2022/09/08 08:05:33;;;;;;;;;;;;;;;;;;5169788;27;19935;-41
2022/09/08 08:08:11;;;;;;;;;;;;;;;;;;5153500;27;19972;-42
2022/09/08 08:10:47;;;;;;;;;;;;;;;;;;5153308;27;19931;-41
2022/09/08 08:13:18;;;;;;;;;;;;;;;;;;5154070;27;19927;-45
2022/09/08 08:15:47;;;;;;;;;;;;;;;;;;5152935;27;20017;-42
2022/09/08 08:18:25;;;;;;;;;;;;;;;;;;5154252;27;19929;-38
2022/09/08 08:21:14;;;;;;;;;;;;;;;;;;5171441;27;19927;-38
2022/09/08 08:23:55;;;;;;;;;;;;;;;;;;5174464;27;19923;-38
2022/09/08 08:26:28;;;;;;;;;;;;;;;;;;5174368;27;19923;-38
2022/09/08 08:29:05;;;;;;;;;;;;;;;;;;5156072;27;19969;-45
2022/09/08 08:31:41;;;;;;;;;;;;;;;;;;5174563;27;19962;-45
2022/09/08 08:34:15;;;;;;;;;;;;;;;;;;5174786;27;19958;-47
2022/09/08 08:36:44;;;;;;;;;;;;;;;;;;5156375;27;19922;-50
2022/09/08 08:39:11;;;;;;;;;;;;;;;;;;5174598;27;20010;-42
2022/09/08 08:42:01;;;;;;;;;;;;;;;;;;5174697;27;19966;-42
2022/09/08 08:44:39;;;;;;;;;;;;;;;;;;5156695;27;19927;-44
2022/09/08 08:47:19;;;;;;;;;;;;;;;;;;5174628;27;20461;-46
2022/09/08 08:49:52;;;;;;;;;;;;;;;;;;5174985;27;20036;-42
2022/09/08 08:52:22;;;;;;;;;;;;;;;;;;5174085;27;19999;-45
2022/09/08 08:55:14;;;;;;;;;;;;;;;;;;5174518;27;19954;-48
2022/09/08 08:57:54;;;;;;;;;;;;;;;;;;5174007;27;19922;-45
2022/09/08 09:00:23;;;;;;;;;;;;;;;;;;5172735;27;20302;-41
2022/09/08 09:03:09;;;;;;;;;;;;;;;;;;5173710;27;20412;-43
2022/09/08 09:05:49;;;;;;;;;;;;;;;;;;5174300;27;20350;-42
2022/09/08 09:08:36;;;;;;;;;;;;;;;;;;5174195;27;20265;-41
2022/09/08 09:11:06;;;;;;;;;;;;;;;;;;5173843;27;20038;-43
2022/09/08 09:13:39;;;;;;;;;;;;;;;;;;5174527;27;19923;-48
2022/09/08 09:16:15;;;;;;;;;;;;;;;;;;5174368;27;20138;-46
2022/09/08 09:19:03;;;;;;;;;;;;;;;;;;5174476;27;20266;-42
2022/09/08 09:21:42;;;;;;;;;;;;;;;;;;5152735;27;20406;-44
2022/09/08 09:24:14;;;;;;;;;;;;;;;;;;5153257;27;19923;-41
2022/09/08 09:26:47;;;;;;;;;;;;;;;;;;5169633;27;19927;-39
2022/09/08 09:29:21;;;;;;;;;;;;;;;;;;5172271;27;19984;-49
2022/09/08 09:31:49;;;;;;;;;;;;;;;;;;5173558;27;19923;-44
2022/09/08 09:34:36;;;;;;;;;;;;;;;;;;5172897;27;19929;-46
2022/09/08 09:37:35;;;;;;;;;;;;;;;;;;5177600;27;19945;-47
2022/09/08 09:40:06;;;;;;;;;;;;;;;;;;5120882;27;19929;-43
2022/09/08 09:42:34;;;;;;;;;;;;;;;;;;5177997;27;20409;-45
2022/09/08 09:45:24;;;;;;;;;;;;;;;;;;5177728;27;20005;-45
2022/09/08 09:47:55;;;;;;;;;;;;;;;;;;5161522;27;20389;-44
2022/09/08 09:50:29;;;;;;;;;;;;;;;;;;5155125;27;19923;-50
2022/09/08 09:53:15;;;;;;;;;;;;;;;;;;5156931;27;20019;-45
2022/09/08 09:55:59;;;;;;;;;;;;;;;;;;5156711;27;20015;-47
2022/09/08 09:58:29;;;;;;;;;;;;;;;;;;5156760;27;19946;-49
2022/09/08 10:01:00;;;;;;;;;;;;;;;;;;5156287;27;20475;-49
2022/09/08 10:03:39;;;;;;;;;;;;;;;;;;5156338;27;19931;-43
2022/09/08 10:06:06;;;;;;;;;;;;;;;;;;5156477;27;19923;-51
2022/09/08 10:08:43;;;;;;;;;;;;;;;;;;5156273;27;20310;-51
2022/09/08 10:11:25;;;;;;;;;;;;;;;;;;5156206;27;19931;-46
2022/09/08 10:14:11;;;;;;;;;;;;;;;;;;5156496;27;19927;-49
2022/09/08 10:16:51;;;;;;;;;;;;;;;;;;5156107;27;19923;-48
2022/09/08 10:19:30;;;;;;;;;;;;;;;;;;5160170;27;19922;-50
2022/09/08 10:21:57;;;;;;;;;;;;;;;;;;5177071;27;20013;-47
2022/09/08 10:24:37;;;;;;;;;;;;;;;;;;5176845;27;19950;-50
2022/09/08 10:27:23;;;;;;;;;;;;;;;;;;5177058;27;19923;-46
2022/09/08 10:30:03;;;;;;;;;;;;;;;;;;5176431;27;19966;-50
2022/09/08 10:32:34;;;;;;;;;;;;;;;;;;5176858;27;19926;-50
2022/09/08 10:35:14;;;;;;;;;;;;;;;;;;5176916;27;19935;-50
2022/09/08 10:38:00;;;;;;;;;;;;;;;;;;5176763;27;19930;-47
2022/09/08 10:40:36;;;;;;;;;;;;;;;;;;5174802;27;19931;-43
2022/09/08 10:43:13;;;;;;;;;;;;;;;;;;5176875;27;19936;-52
2022/09/08 10:45:59;;;;;;;;;;;;;;;;;;5176718;27;19973;-48
2022/09/08 10:48:45;;;;;;;;;;;;;;;;;;5176463;27;19967;-44
2022/09/08 10:51:16;;;;;;;;;;;;;;;;;;5176334;27;19927;-47
2022/09/08 10:53:54;;;;;;;;;;;;;;;;;;5158109;27;19922;-42
2022/09/08 10:56:22;;;;;;;;;;;;;;;;;;5176503;27;19926;-52
2022/09/08 10:58:58;;;;;;;;;;;;;;;;;;5175986;27;19929;-50
2022/09/08 11:01:31;;;;;;;;;;;;;;;;;;5176111;27;19922;-45
2022/09/08 11:03:59;;;;;;;;;;;;;;;;;;5176332;27;19967;-44
2022/09/08 11:06:26;;;;;;;;;;;;;;;;;;5176322;27;20382;-48
2022/09/08 11:09:09;;;;;;;;;;;;;;;;;;5175822;27;19922;-47
2022/09/08 11:11:40;;;;;;;;;;;;;;;;;;5176157;27;20695;-48
2022/09/08 11:14:22;;;;;;;;;;;;;;;;;;5175895;27;20110;-46
2022/09/08 11:16:57;;;;;;;;;;;;;;;;;;5175865;27;19944;-46
2022/09/08 11:19:34;;;;;;;;;;;;;;;;;;5175650;27;20009;-48
2022/09/08 11:22:02;;;;;;;;;;;;;;;;;;5175925;27;19966;-49
2022/09/08 11:24:36;;;;;;;;;;;;;;;;;;5175541;27;19927;-45
2022/09/08 11:27:22;;;;;;;;;;;;;;;;;;5175858;27;19923;-46
2022/09/08 11:30:15;;;;;;;;;;;;;;;;;;5175598;27;19923;-45
2022/09/08 11:33:09;;;;;;;;;;;;;;;;;;5159643;27;19929;-46
2022/09/08 11:35:42;;;;;;;;;;;;;;;;;;5108838;27;19930;-44
2022/09/08 11:38:13;;;;;;;;;;;;;;;;;;5154344;27;20000;-54
2022/09/08 11:40:40;;;;;;;;;;;;;;;;;;5153752;27;20397;-46
2022/09/08 11:43:16;;;;;;;;;;;;;;;;;;5157845;27;19983;-45
2022/09/08 11:45:53;;;;;;;;;;;;;;;;;;5175720;27;19966;-46
2022/09/08 11:48:44;;;;;;;;;;;;;;;;;;5167396;27;20369;-43
2022/09/08 11:51:26;;;;;;;;;;;;;;;;;;5175166;27;20346;-48
2022/09/08 11:54:23;;;;;;;;;;;;;;;;;;5174602;27;20005;-49
2022/09/08 11:57:20;;;;;;;;;;;;;;;;;;5173018;27;20030;-43
2022/09/08 11:59:58;;;;;;;;;;;;;;;;;;5174188;27;19926;-46
2022/09/08 12:02:28;;;;;;;;;;;;;;;;;;5175326;27;19923;-47
2022/09/08 12:05:08;;;;;;;;;;;;;;;;;;5174902;27;19927;-46
2022/09/08 12:08:12;;;;;;;;;;;;;;;;;;5174658;27;20025;-50
2022/09/08 12:11:00;;;;;;;;;;;;;;;;;;5175137;27;19922;-45
2022/09/08 12:13:29;;;;;;;;;;;;;;;;;;5174753;27;19926;-50
2022/09/08 12:15:56;;;;;;;;;;;;;;;;;;5174920;27;19945;-48
2022/09/08 12:18:28;;;;;;;;;;;;;;;;;;5174526;27;20381;-48
2022/09/08 12:21:14;;;;;;;;;;;;;;;;;;5174746;27;19975;-44
2022/09/08 12:23:48;;;;;;;;;;;;;;;;;;5174428;27;20346;-50
2022/09/08 12:26:27;;;;;;;;;;;;;;;;;;5174782;27;20404;-50
2022/09/08 12:29:01;;;;;;;;;;;;;;;;;;5174774;27;19949;-49
2022/09/08 12:31:53;;;;;;;;;;;;;;;;;;5174874;27;19945;-46
2022/09/08 12:34:21;;;;;;;;;;;;;;;;;;5174800;27;20010;-47
2022/09/08 12:36:55;;;;;;;;;;;;;;;;;;5174725;27;19927;-48
2022/09/08 12:39:29;;;;;;;;;;;;;;;;;;5174644;27;20377;-54
2022/09/08 12:42:24;;;;;;;;;;;;;;;;;;5174517;27;20309;-45
2022/09/08 12:45:13;;;;;;;;;;;;;;;;;;5174671;27;19927;-47
2022/09/08 12:47:59;;;;;;;;;;;;;;;;;;5174650;27;20381;-43
2022/09/08 12:50:45;;;;;;;;;;;;;;;;;;5174248;27;19942;-43
2022/09/08 12:53:20;;;;;;;;;;;;;;;;;;5174509;27;19967;-43
2022/09/08 12:56:03;;;;;;;;;;;;;;;;;;5174744;27;20437;-43
2022/09/08 12:58:41;;;;;;;;;;;;;;;;;;5174315;27;19958;-45
2022/09/08 13:01:18;;;;;;;;;;;;;;;;;;5174673;27;19940;-51
2022/09/08 13:03:46;;;;;;;;;;;;;;;;;;5171025;27;19923;-49
2022/09/08 13:06:28;;;;;;;;;;;;;;;;;;5156643;27;19923;-45
2022/09/08 13:08:58;;;;;;;;;;;;;;;;;;5153469;27;19923;-51
2022/09/08 13:12:01;;;;;;;;;;;;;;;;;;5156698;27;19923;-46
2022/09/08 13:14:47;;;;;;;;;;;;;;;;;;5053539;28;19933;-46
2022/09/08 13:17:21;;;;;;;;;;;;;;;;;;5151339;27;19930;-48
2022/09/08 13:20:00;;;;;;;;;;;;;;;;;;5165143;27;20014;-49
2022/09/08 13:22:28;;;;;;;;;;;;;;;;;;5178088;27;19933;-50
2022/09/08 13:25:21;;;;;;;;;;;;;;;;;;5177988;27;19934;-46
2022/09/08 13:28:07;;;;;;;;;;;;;;;;;;5149247;27;19933;-42
2022/09/08 13:30:47;;;;;;;;;;;;;;;;;;5177947;27;19969;-48
2022/09/08 13:33:27;;;;;;;;;;;;;;;;;;5178157;27;19933;-50
2022/09/08 13:36:08;;;;;;;;;;;;;;;;;;5177979;27;20342;-51
2022/09/08 13:38:45;;;;;;;;;;;;;;;;;;5177766;27;20270;-50
2022/09/08 13:41:29;;;;;;;;;;;;;;;;;;5177446;27;19974;-50
2022/09/08 13:44:16;;;;;;;;;;;;;;;;;;5177525;27;19930;-46
2022/09/08 13:47:02;;;;;;;;;;;;;;;;;;5177196;27;19930;-47
2022/09/08 13:49:48;;;;;;;;;;;;;;;;;;5177614;27;19926;-50
2022/09/08 13:52:23;;;;;;;;;;;;;;;;;;5177407;27;19922;-48
2022/09/08 13:54:51;;;;;;;;;;;;;;;;;;5177476;27;19923;-50
2022/09/08 13:57:27;;;;;;;;;;;;;;;;;;5175966;27;19927;-42
2022/09/08 13:59:54;;;;;;;;;;;;;;;;;;5177267;27;19966;-49
2022/09/08 14:02:28;;;;;;;;;;;;;;;;;;5177587;27;19949;-49
2022/09/08 14:05:00;;;;;;;;;;;;;;;;;;5176976;27;20368;-48
2022/09/08 14:07:27;;;;;;;;;;;;;;;;;;5176975;27;19923;-50
2022/09/08 14:10:24;;;;;;;;;;;;;;;;;;5176377;27;20271;-48
2022/09/08 14:12:52;;;;;;;;;;;;;;;;;;5083247;27;19931;-47
2022/09/08 14:15:22;;;;;;;;;;;;;;;;;;5175353;27;19971;-44
2022/09/08 14:18:07;;;;;;;;;;;;;;;;;;5175330;27;19966;-52
2022/09/08 14:20:45;;;;;;;;;;;;;;;;;;5175405;27;20356;-49
2022/09/08 14:23:15;;;;;;;;;;;;;;;;;;5175506;27;19926;-45
2022/09/08 14:25:43;;;;;;;;;;;;;;;;;;5174822;27;19927;-46
2022/09/08 14:28:18;;;;;;;;;;;;;;;;;;5174791;27;20013;-40
2022/09/08 14:30:45;;;;;;;;;;;;;;;;;;5175298;27;19922;-49
2022/09/08 14:33:24;;;;;;;;;;;;;;;;;;5174821;27;20309;-51
2022/09/08 14:35:54;;;;;;;;;;;;;;;;;;5175044;27;19929;-47
2022/09/08 14:38:24;;;;;;;;;;;;;;;;;;5174574;27;20347;-44
2022/09/08 14:41:14;;;;;;;;;;;;;;;;;;5176070;27;19970;-49
2022/09/08 14:43:41;;;;;;;;;;;;;;;;;;5176875;27;19946;-48
2022/09/08 14:46:14;;;;;;;;;;;;;;;;;;5176591;27;19927;-46
2022/09/08 14:48:57;;;;;;;;;;;;;;;;;;5176962;27;19975;-44
2022/09/08 14:51:27;;;;;;;;;;;;;;;;;;5176167;27;19964;-48
2022/09/08 14:54:04;;;;;;;;;;;;;;;;;;5176611;27;20006;-44
2022/09/08 14:56:37;;;;;;;;;;;;;;;;;;5176541;27;19923;-45
2022/09/08 14:59:16;;;;;;;;;;;;;;;;;;5166619;27;20022;-51
2022/09/08 15:01:47;;;;;;;;;;;;;;;;;;5173627;27;19922;-46
2022/09/08 15:04:24;;;;;;;;;;;;;;;;;;5174984;27;20386;-47
2022/09/08 15:06:54;;;;;;;;;;;;;;;;;;5175529;27;20394;-46
2022/09/08 15:09:24;;;;;;;;;;;;;;;;;;5175764;27;19922;-48
2022/09/08 15:11:56;;;;;;;;;;;;;;;;;;5162047;27;20022;-44
2022/09/08 15:14:51;;;;;;;;;;;;;;;;;;5155210;27;20017;-52
2022/09/08 15:17:25;;;;;;;;;;;;;;;;;;5155318;27;19923;-45
2022/09/08 15:20:01;;;;;;;;;;;;;;;;;;5164123;27;19927;-45
2022/09/08 15:22:28;;;;;;;;;;;;;;;;;;5175827;27;19923;-53
2022/09/08 15:24:57;;;;;;;;;;;;;;;;;;5175826;27;19975;-45
2022/09/08 15:27:26;;;;;;;;;;;;;;;;;;5175482;27;19927;-45
2022/09/08 15:29:59;;;;;;;;;;;;;;;;;;5175889;27;19980;-53
2022/09/08 15:32:32;;;;;;;;;;;;;;;;;;5175378;27;19927;-46
2022/09/08 15:35:14;;;;;;;;;;;;;;;;;;5175323;27;20331;-48
2022/09/08 15:37:47;;;;;;;;;;;;;;;;;;5175534;27;19923;-51
2022/09/08 15:40:16;;;;;;;;;;;;;;;;;;5176072;27;20344;-49
2022/09/08 15:42:44;;;;;;;;;;;;;;;;;;5175370;27;20001;-53
2022/09/08 15:45:11;;;;;;;;;;;;;;;;;;5175507;27;19934;-52
2022/09/08 15:47:57;;;;;;;;;;;;;;;;;;5175276;27;19922;-49
2022/09/08 15:50:27;;;;;;;;;;;;;;;;;;5175384;27;19923;-45
2022/09/08 15:53:06;;;;;;;;;;;;;;;;;;5175311;27;19923;-47
2022/09/08 15:55:34;;;;;;;;;;;;;;;;;;5175376;27;20352;-48
2022/09/08 15:58:13;;;;;;;;;;;;;;;;;;5175366;27;19922;-52
2022/09/08 16:00:53;;;;;;;;;;;;;;;;;;5175340;27;20385;-45
2022/09/08 16:03:35;;;;;;;;;;;;;;;;;;5175149;27;20018;-53
2022/09/08 16:06:11;;;;;;;;;;;;;;;;;;5175090;27;20266;-48
2022/09/08 16:08:45;;;;;;;;;;;;;;;;;;5152369;27;19968;-45
2022/09/08 16:11:20;;;;;;;;;;;;;;;;;;5154030;27;20322;-50
2022/09/08 16:14:06;;;;;;;;;;;;;;;;;;5154410;27;19923;-47
2022/09/08 16:16:45;;;;;;;;;;;;;;;;;;5154234;27;19923;-51
2022/09/08 16:19:15;;;;;;;;;;;;;;;;;;5153887;27;19923;-43
2022/09/08 16:21:58;;;;;;;;;;;;;;;;;;5154345;27;19968;-43
2022/09/08 16:24:41;;;;;;;;;;;;;;;;;;5153782;27;19999;-43
2022/09/08 16:27:21;;;;;;;;;;;;;;;;;;5154186;27;19927;-44
2022/09/08 16:29:58;;;;;;;;;;;;;;;;;;5154013;27;19927;-43
2022/09/08 16:32:31;;;;;;;;;;;;;;;;;;5154029;27;20730;-46
2022/09/08 16:35:05;;;;;;;;;;;;;;;;;;5154065;27;19954;-44
2022/09/08 16:37:38;;;;;;;;;;;;;;;;;;5153978;27;20339;-47
2022/09/08 16:40:09;;;;;;;;;;;;;;;;;;5153974;27;19923;-49
2022/09/08 16:42:43;;;;;;;;;;;;;;;;;;5153893;27;19966;-49
2022/09/08 16:45:12;;;;;;;;;;;;;;;;;;5155723;27;19923;-48
2022/09/08 16:47:45;;;;;;;;;;;;;;;;;;5158199;27;19950;-47
2022/09/08 16:50:12;;;;;;;;;;;;;;;;;;5158129;27;20401;-49
2022/09/08 16:52:52;;;;;;;;;;;;;;;;;;5158195;27;19927;-47
2022/09/08 16:55:25;;;;;;;;;;;;;;;;;;5158180;27;20374;-46
2022/09/08 16:58:06;;;;;;;;;;;;;;;;;;5157720;27;20281;-48
2022/09/08 17:01:00;;;;;;;;;;;;;;;;;;5157734;27;19923;-48
2022/09/08 17:03:38;;;;;;;;;;;;;;;;;;5157711;27;19923;-44
2022/09/08 17:06:21;;;;;;;;;;;;;;;;;;5157755;27;19923;-45
2022/09/08 17:08:59;;;;;;;;;;;;;;;;;;5172575;27;20009;-49
2022/09/08 17:11:35;;;;;;;;;;;;;;;;;;5178419;27;20331;-45
2022/09/08 17:14:03;;;;;;;;;;;;;;;;;;5178382;27;19922;-43
2022/09/08 17:16:49;;;;;;;;;;;;;;;;;;5178218;27;20025;-48
2022/09/08 17:19:24;;;;;;;;;;;;;;;;;;5178542;27;19922;-44
2022/09/08 17:21:55;;;;;;;;;;;;;;;;;;5178183;27;19923;-44
2022/09/08 17:24:38;;;;;;;;;;;;;;;;;;5178068;27;19971;-45
2022/09/08 17:27:23;;;;;;;;;;;;;;;;;;5177942;27;19927;-43
2022/09/08 17:30:09;;;;;;;;;;;;;;;;;;5178128;27;20414;-46
2022/09/08 17:32:50;;;;;;;;;;;;;;;;;;5178298;27;19930;-46
2022/09/08 17:35:20;;;;;;;;;;;;;;;;;;5178035;27;20393;-43
2022/09/08 17:38:01;;;;;;;;;;;;;;;;;;5178409;27;20437;-44
2022/09/08 17:40:32;;;;;;;;;;;;;;;;;;5177812;27;19930;-47